sensor_id;sensor_type;location;lat;lon;timestamp;temperature;humidity
26272;DHT22;13997;48.902;12.472;2023-04-25T00:01:55;230.60;2252.80
26272;DHT22;13997;48.902;12.472;2023-04-25T00:04:21;230.60;2252.80
26272;DHT22;13997;48.902;12.472;2023-04-25T00:06:47;230.60;2252.80
26272;DHT22;13997;48.902;12.472;2023-04-25T00:09:13;230.60;2252.80
26272;DHT22;13997;48.902;12.472;2023-04-25T00:11:40;230.50;2252.80
26272;DHT22;13997;48.902;12.472;2023-04-25T00:14:06;230.50;2252.80
26272;DHT22;13997;48.902;12.472;2023-04-25T00:16:32;205.70;2252.80
26272;DHT22;13997;48.902;12.472;2023-04-25T00:19:00;205.70;2252.80
26272;DHT22;13997;48.902;12.472;2023-04-25T00:21:26;205.70;2252.80
26272;DHT22;13997;48.902;12.472;2023-04-25T00:23:54;205.70;2252.80
26272;DHT22;13997;48.902;12.472;2023-04-25T00:26:19;205.60;2252.80
26272;DHT22;13997;48.902;12.472;2023-04-25T00:28:46;205.60;2252.80
26272;DHT22;13997;48.902;12.472;2023-04-25T00:31:12;205.50;2252.80
26272;DHT22;13997;48.902;12.472;2023-04-25T00:33:38;205.50;2252.80
26272;DHT22;13997;48.902;12.472;2023-04-25T00:36:03;205.50;2252.80
26272;DHT22;13997;48.902;12.472;2023-04-25T00:38:29;205.50;2252.80
26272;DHT22;13997;48.902;12.472;2023-04-25T00:40:55;205.60;2252.80
26272;DHT22;13997;48.902;12.472;2023-04-25T00:43:21;205.60;2252.80
26272;DHT22;13997;48.902;12.472;2023-04-25T00:45:47;205.60;2252.80
26272;DHT22;13997;48.902;12.472;2023-04-25T00:48:17;205.70;2252.80
26272;DHT22;13997;48.902;12.472;2023-04-25T00:50:52;205.60;2252.80
26272;DHT22;13997;48.902;12.472;2023-04-25T00:53:18;205.70;2252.80
26272;DHT22;13997;48.902;12.472;2023-04-25T00:55:45;205.70;2252.80
26272;DHT22;13997;48.902;12.472;2023-04-25T00:58:10;205.70;2252.80
26272;DHT22;13997;48.902;12.472;2023-04-25T01:00:36;205.70;2252.80
26272;DHT22;13997;48.902;12.472;2023-04-25T01:03:03;205.70;2252.80
26272;DHT22;13997;48.902;12.472;2023-04-25T01:05:29;205.70;2252.80
26272;DHT22;13997;48.902;12.472;2023-04-25T01:07:55;205.70;2252.80
26272;DHT22;13997;48.902;12.472;2023-04-25T01:10:21;205.70;2252.80
26272;DHT22;13997;48.902;12.472;2023-04-25T01:12:47;205.70;2252.80
26272;DHT22;13997;48.902;12.472;2023-04-25T01:15:12;205.70;2252.80
26272;DHT22;13997;48.902;12.472;2023-04-25T01:17:38;205.70;2252.80
26272;DHT22;13997;48.902;12.472;2023-04-25T01:20:07;205.70;2252.80
26272;DHT22;13997;48.902;12.472;2023-04-25T01:22:35;205.70;2252.80
26272;DHT22;13997;48.902;12.472;2023-04-25T01:25:00;205.70;2252.80
26272;DHT22;13997;48.902;12.472;2023-04-25T01:27:27;205.70;2252.80
26272;DHT22;13997;48.902;12.472;2023-04-25T01:29:54;205.70;2252.80
26272;DHT22;13997;48.902;12.472;2023-04-25T01:32:21;205.70;2252.80
26272;DHT22;13997;48.902;12.472;2023-04-25T01:34:47;205.70;2252.80
26272;DHT22;13997;48.902;12.472;2023-04-25T01:37:13;205.70;2252.80
26272;DHT22;13997;48.902;12.472;2023-04-25T01:39:38;205.70;2252.80
26272;DHT22;13997;48.902;12.472;2023-04-25T01:42:04;205.70;2252.80
26272;DHT22;13997;48.902;12.472;2023-04-25T01:44:30;205.70;2252.80
26272;DHT22;13997;48.902;12.472;2023-04-25T01:46:55;205.70;2252.80
26272;DHT22;13997;48.902;12.472;2023-04-25T01:49:21;205.70;2252.80
26272;DHT22;13997;48.902;12.472;2023-04-25T01:51:46;205.70;2252.80
26272;DHT22;13997;48.902;12.472;2023-04-25T01:54:13;205.70;2252.80
26272;DHT22;13997;48.902;12.472;2023-04-25T01:56:39;205.70;2252.80
26272;DHT22;13997;48.902;12.472;2023-04-25T01:59:05;205.70;2252.80
26272;DHT22;13997;48.902;12.472;2023-04-25T02:01:31;205.70;2252.80
26272;DHT22;13997;48.902;12.472;2023-04-25T02:03:57;205.70;2252.80
26272;DHT22;13997;48.902;12.472;2023-04-25T02:06:23;205.70;2252.80
26272;DHT22;13997;48.902;12.472;2023-04-25T02:08:48;205.70;2252.80
26272;DHT22;13997;48.902;12.472;2023-04-25T02:11:14;205.70;2252.80
26272;DHT22;13997;48.902;12.472;2023-04-25T02:13:39;205.70;2252.80
26272;DHT22;13997;48.902;12.472;2023-04-25T02:16:05;205.70;2252.80
26272;DHT22;13997;48.902;12.472;2023-04-25T02:18:31;205.70;2252.80
26272;DHT22;13997;48.902;12.472;2023-04-25T02:20:59;205.70;2252.80
26272;DHT22;13997;48.902;12.472;2023-04-25T02:23:25;205.70;2252.80
26272;DHT22;13997;48.902;12.472;2023-04-25T02:25:50;205.70;2252.80
26272;DHT22;13997;48.902;12.472;2023-04-25T02:28:17;205.70;2252.80
26272;DHT22;13997;48.902;12.472;2023-04-25T02:30:42;205.70;2252.80
26272;DHT22;13997;48.902;12.472;2023-04-25T02:33:08;205.70;2252.80
26272;DHT22;13997;48.902;12.472;2023-04-25T02:35:34;205.70;2252.80
26272;DHT22;13997;48.902;12.472;2023-04-25T02:37:59;205.70;2252.80
26272;DHT22;13997;48.902;12.472;2023-04-25T02:40:25;205.70;2252.80
26272;DHT22;13997;48.902;12.472;2023-04-25T02:42:50;205.70;2252.80
26272;DHT22;13997;48.902;12.472;2023-04-25T02:45:16;205.70;2252.80
26272;DHT22;13997;48.902;12.472;2023-04-25T02:47:42;205.70;2252.80
26272;DHT22;13997;48.902;12.472;2023-04-25T02:50:08;205.70;2252.80
26272;DHT22;13997;48.902;12.472;2023-04-25T02:52:33;205.70;2252.80
26272;DHT22;13997;48.902;12.472;2023-04-25T02:54:59;205.60;2252.80
26272;DHT22;13997;48.902;12.472;2023-04-25T02:57:25;205.60;2252.80
26272;DHT22;13997;48.902;12.472;2023-04-25T02:59:50;205.60;2252.80
26272;DHT22;13997;48.902;12.472;2023-04-25T03:02:16;205.60;2252.80
26272;DHT22;13997;48.902;12.472;2023-04-25T03:04:41;205.50;2252.80
26272;DHT22;13997;48.902;12.472;2023-04-25T03:07:07;205.50;2252.80
26272;DHT22;13997;48.902;12.472;2023-04-25T03:09:32;205.50;2252.80
26272;DHT22;13997;48.902;12.472;2023-04-25T03:11:58;205.50;2252.80
26272;DHT22;13997;48.902;12.472;2023-04-25T03:14:24;205.50;2252.80
26272;DHT22;13997;48.902;12.472;2023-04-25T03:16:49;205.50;2252.80
26272;DHT22;13997;48.902;12.472;2023-04-25T03:19:15;205.50;2252.80
26272;DHT22;13997;48.902;12.472;2023-04-25T03:21:44;205.50;2252.80
26272;DHT22;13997;48.902;12.472;2023-04-25T03:24:10;205.50;2252.80
26272;DHT22;13997;48.902;12.472;2023-04-25T03:26:36;205.50;2252.80
26272;DHT22;13997;48.902;12.472;2023-04-25T03:29:02;205.60;2252.80
26272;DHT22;13997;48.902;12.472;2023-04-25T03:31:27;205.60;2252.80
26272;DHT22;13997;48.902;12.472;2023-04-25T03:33:53;205.50;2252.80
26272;DHT22;13997;48.902;12.472;2023-04-25T03:36:19;205.50;2252.80
26272;DHT22;13997;48.902;12.472;2023-04-25T03:38:44;205.50;2252.80
26272;DHT22;13997;48.902;12.472;2023-04-25T03:41:10;205.50;2252.80
26272;DHT22;13997;48.902;12.472;2023-04-25T03:43:35;205.50;2252.80
26272;DHT22;13997;48.902;12.472;2023-04-25T03:46:01;205.50;2252.80
26272;DHT22;13997;48.902;12.472;2023-04-25T03:48:27;205.50;2252.80
26272;DHT22;13997;48.902;12.472;2023-04-25T03:50:53;205.50;2252.80
26272;DHT22;13997;48.902;12.472;2023-04-25T03:53:19;205.50;2252.80
26272;DHT22;13997;48.902;12.472;2023-04-25T03:55:45;205.50;2252.80
26272;DHT22;13997;48.902;12.472;2023-04-25T03:58:10;205.50;2252.80
26272;DHT22;13997;48.902;12.472;2023-04-25T04:00:36;205.50;2252.80
26272;DHT22;13997;48.902;12.472;2023-04-25T04:03:02;205.50;2252.80
26272;DHT22;13997;48.902;12.472;2023-04-25T04:05:27;205.40;2252.80
26272;DHT22;13997;48.902;12.472;2023-04-25T04:07:54;205.40;2252.80
26272;DHT22;13997;48.902;12.472;2023-04-25T04:10:20;205.30;2252.80
26272;DHT22;13997;48.902;12.472;2023-04-25T04:12:46;205.30;2252.80
26272;DHT22;13997;48.902;12.472;2023-04-25T04:15:11;205.30;2252.80
26272;DHT22;13997;48.902;12.472;2023-04-25T04:17:37;205.40;2252.80
26272;DHT22;13997;48.902;12.472;2023-04-25T04:20:03;205.40;2252.80
26272;DHT22;13997;48.902;12.472;2023-04-25T04:22:29;205.40;2252.80
26272;DHT22;13997;48.902;12.472;2023-04-25T04:24:55;205.40;2252.80
26272;DHT22;13997;48.902;12.472;2023-04-25T04:27:22;205.40;2252.80
26272;DHT22;13997;48.902;12.472;2023-04-25T04:29:48;205.50;2252.80
26272;DHT22;13997;48.902;12.472;2023-04-25T04:32:15;205.50;2252.80
26272;DHT22;13997;48.902;12.472;2023-04-25T04:34:40;205.50;2252.80
26272;DHT22;13997;48.902;12.472;2023-04-25T04:37:06;205.50;2252.80
26272;DHT22;13997;48.902;12.472;2023-04-25T04:39:33;205.50;2252.80
26272;DHT22;13997;48.902;12.472;2023-04-25T04:41:59;205.60;2252.80
26272;DHT22;13997;48.902;12.472;2023-04-25T04:44:27;205.60;2252.80
26272;DHT22;13997;48.902;12.472;2023-04-25T04:46:53;205.60;2252.80
26272;DHT22;13997;48.902;12.472;2023-04-25T04:49:19;205.70;2252.80
26272;DHT22;13997;48.902;12.472;2023-04-25T04:51:44;205.70;2252.80
26272;DHT22;13997;48.902;12.472;2023-04-25T04:54:10;205.70;2252.80
26272;DHT22;13997;48.902;12.472;2023-04-25T04:56:36;205.70;2252.80
26272;DHT22;13997;48.902;12.472;2023-04-25T04:59:01;205.70;2252.80
26272;DHT22;13997;48.902;12.472;2023-04-25T05:01:28;205.70;2252.80
26272;DHT22;13997;48.902;12.472;2023-04-25T05:03:55;230.40;2252.80
26272;DHT22;13997;48.902;12.472;2023-04-25T05:06:25;230.40;2252.80
26272;DHT22;13997;48.902;12.472;2023-04-25T05:08:51;230.50;2252.80
26272;DHT22;13997;48.902;12.472;2023-04-25T05:11:18;230.50;2252.80
26272;DHT22;13997;48.902;12.472;2023-04-25T05:13:44;230.50;2252.80
26272;DHT22;13997;48.902;12.472;2023-04-25T05:16:11;230.50;2252.80
26272;DHT22;13997;48.902;12.472;2023-04-25T05:18:36;230.40;2252.80
26272;DHT22;13997;48.902;12.472;2023-04-25T05:21:02;205.70;2252.80
26272;DHT22;13997;48.902;12.472;2023-04-25T05:23:28;230.40;2252.80
26272;DHT22;13997;48.902;12.472;2023-04-25T05:25:55;230.50;2252.80
26272;DHT22;13997;48.902;12.472;2023-04-25T05:28:21;230.60;2252.80
26272;DHT22;13997;48.902;12.472;2023-04-25T05:30:46;230.60;2252.80
26272;DHT22;13997;48.902;12.472;2023-04-25T05:33:12;230.60;2252.80
26272;DHT22;13997;48.902;12.472;2023-04-25T05:35:37;230.50;2252.80
26272;DHT22;13997;48.902;12.472;2023-04-25T05:38:03;230.40;2252.80
26272;DHT22;13997;48.902;12.472;2023-04-25T05:40:28;205.70;2252.80
26272;DHT22;13997;48.902;12.472;2023-04-25T05:42:54;205.70;2252.80
26272;DHT22;13997;48.902;12.472;2023-04-25T05:45:20;205.70;2252.80
26272;DHT22;13997;48.902;12.472;2023-04-25T05:47:45;205.70;2252.80
26272;DHT22;13997;48.902;12.472;2023-04-25T05:50:11;205.70;2252.80
26272;DHT22;13997;48.902;12.472;2023-04-25T05:52:36;230.50;2252.80
26272;DHT22;13997;48.902;12.472;2023-04-25T05:55:02;230.50;2252.80
26272;DHT22;13997;48.902;12.472;2023-04-25T05:57:27;230.60;2252.80
26272;DHT22;13997;48.902;12.472;2023-04-25T05:59:54;230.70;2252.80
26272;DHT22;13997;48.902;12.472;2023-04-25T06:02:20;230.80;2252.80
26272;DHT22;13997;48.902;12.472;2023-04-25T06:04:48;230.80;2252.80
26272;DHT22;13997;48.902;12.472;2023-04-25T06:07:14;231.00;2252.80
26272;DHT22;13997;48.902;12.472;2023-04-25T06:09:40;231.10;2252.80
26272;DHT22;13997;48.902;12.472;2023-04-25T06:12:06;231.20;2252.80
26272;DHT22;13997;48.902;12.472;2023-04-25T06:14:33;231.30;2252.80
26272;DHT22;13997;48.902;12.472;2023-04-25T06:16:58;256.00;2252.80
26272;DHT22;13997;48.902;12.472;2023-04-25T06:19:24;256.00;2252.80
26272;DHT22;13997;48.902;12.472;2023-04-25T06:21:49;231.30;2252.80
26272;DHT22;13997;48.902;12.472;2023-04-25T06:24:15;256.10;2252.80
26272;DHT22;13997;48.902;12.472;2023-04-25T06:26:41;256.30;2252.80
26272;DHT22;13997;48.902;12.472;2023-04-25T06:29:06;256.40;2252.80
26272;DHT22;13997;48.902;12.472;2023-04-25T06:31:32;256.40;2252.80
26272;DHT22;13997;48.902;12.472;2023-04-25T06:33:59;256.40;2252.80
26272;DHT22;13997;48.902;12.472;2023-04-25T06:36:24;256.20;2252.80
26272;DHT22;13997;48.902;12.472;2023-04-25T06:38:51;256.10;2252.80
26272;DHT22;13997;48.902;12.472;2023-04-25T06:41:17;256.00;2252.80
26272;DHT22;13997;48.902;12.472;2023-04-25T06:43:44;231.30;2252.80
26272;DHT22;13997;48.902;12.472;2023-04-25T06:46:09;256.10;2252.80
26272;DHT22;13997;48.902;12.472;2023-04-25T06:48:35;256.40;2252.80
26272;DHT22;13997;48.902;12.472;2023-04-25T06:51:00;256.60;2252.80
26272;DHT22;13997;48.902;12.472;2023-04-25T06:53:26;256.70;2252.80
26272;DHT22;13997;48.902;12.472;2023-04-25T06:55:52;256.60;2252.80
26272;DHT22;13997;48.902;12.472;2023-04-25T06:58:18;256.50;2252.80
26272;DHT22;13997;48.902;12.472;2023-04-25T07:00:43;256.50;2252.80
26272;DHT22;13997;48.902;12.472;2023-04-25T07:03:09;256.40;2252.80
26272;DHT22;13997;48.902;12.472;2023-04-25T07:05:35;256.50;2252.80
26272;DHT22;13997;48.902;12.472;2023-04-25T07:08:00;256.70;2252.80
26272;DHT22;13997;48.902;12.472;2023-04-25T07:10:26;256.90;2252.80
26272;DHT22;13997;48.902;12.472;2023-04-25T07:12:51;281.70;2278.40
26272;DHT22;13997;48.902;12.472;2023-04-25T07:15:17;281.70;2278.40
26272;DHT22;13997;48.902;12.472;2023-04-25T07:17:43;281.90;2278.40
26272;DHT22;13997;48.902;12.472;2023-04-25T07:20:09;282.10;2278.40
26272;DHT22;13997;48.902;12.472;2023-04-25T07:22:36;282.30;2278.40
26272;DHT22;13997;48.902;12.472;2023-04-25T07:25:01;282.40;2278.40
26272;DHT22;13997;48.902;12.472;2023-04-25T07:27:28;282.50;2278.40
26272;DHT22;13997;48.902;12.472;2023-04-25T07:29:53;282.50;2278.40
26272;DHT22;13997;48.902;12.472;2023-04-25T07:32:19;282.50;2278.40
26272;DHT22;13997;48.902;12.472;2023-04-25T07:34:45;282.50;2278.40
26272;DHT22;13997;48.902;12.472;2023-04-25T07:37:10;307.20;2304.00
26272;DHT22;13997;48.902;12.472;2023-04-25T07:39:36;307.20;2304.00
26272;DHT22;13997;48.902;12.472;2023-04-25T07:42:02;307.30;2304.00
26272;DHT22;13997;48.902;12.472;2023-04-25T07:44:29;307.30;2304.00
26272;DHT22;13997;48.902;12.472;2023-04-25T07:46:56;307.40;2304.00
26272;DHT22;13997;48.902;12.472;2023-04-25T07:49:21;307.40;2304.00
26272;DHT22;13997;48.902;12.472;2023-04-25T07:51:47;307.30;2304.00
26272;DHT22;13997;48.902;12.472;2023-04-25T07:54:14;307.20;2304.00
26272;DHT22;13997;48.902;12.472;2023-04-25T07:56:41;282.50;2278.40
26272;DHT22;13997;48.902;12.472;2023-04-25T07:59:06;307.30;2304.00
26272;DHT22;13997;48.902;12.472;2023-04-25T08:01:33;307.40;2304.00
26272;DHT22;13997;48.902;12.472;2023-04-25T08:03:59;307.50;2304.00
26272;DHT22;13997;48.902;12.472;2023-04-25T08:06:24;307.80;2304.00
26272;DHT22;13997;48.902;12.472;2023-04-25T08:08:50;307.90;2304.00
26272;DHT22;13997;48.902;12.472;2023-04-25T08:11:16;307.90;2304.00
26272;DHT22;13997;48.902;12.472;2023-04-25T08:13:42;307.90;2304.00
26272;DHT22;13997;48.902;12.472;2023-04-25T08:16:07;307.90;2304.00
26272;DHT22;13997;48.902;12.472;2023-04-25T08:18:33;307.90;2304.00
26272;DHT22;13997;48.902;12.472;2023-04-25T08:20:58;332.80;2329.60
26272;DHT22;13997;48.902;12.472;2023-04-25T08:23:24;332.80;2329.60
26272;DHT22;13997;48.902;12.472;2023-04-25T08:25:50;308.10;2304.00
26272;DHT22;13997;48.902;12.472;2023-04-25T08:28:16;307.80;2304.00
26272;DHT22;13997;48.902;12.472;2023-04-25T08:30:41;307.50;2304.00
26272;DHT22;13997;48.902;12.472;2023-04-25T08:33:07;307.30;2304.00
26272;DHT22;13997;48.902;12.472;2023-04-25T08:35:33;282.50;2278.40
26272;DHT22;13997;48.902;12.472;2023-04-25T08:37:59;282.10;2278.40
26272;DHT22;13997;48.902;12.472;2023-04-25T08:40:27;281.80;2278.40
26272;DHT22;13997;48.902;12.472;2023-04-25T08:42:58;256.90;2252.80
26272;DHT22;13997;48.902;12.472;2023-04-25T08:45:27;256.80;2252.80
26272;DHT22;13997;48.902;12.472;2023-04-25T08:47:54;256.80;2252.80
26272;DHT22;13997;48.902;12.472;2023-04-25T08:50:22;256.80;2252.80
26272;DHT22;13997;48.902;12.472;2023-04-25T08:52:49;256.80;2252.80
26272;DHT22;13997;48.902;12.472;2023-04-25T08:55:18;256.70;2252.80
26272;DHT22;13997;48.902;12.472;2023-04-25T08:57:44;256.70;2252.80
26272;DHT22;13997;48.902;12.472;2023-04-25T09:00:11;256.90;2252.80
26272;DHT22;13997;48.902;12.472;2023-04-25T09:02:39;281.90;2278.40
26272;DHT22;13997;48.902;12.472;2023-04-25T09:05:05;282.30;2278.40
26272;DHT22;13997;48.902;12.472;2023-04-25T09:07:32;307.20;2304.00
26272;DHT22;13997;48.902;12.472;2023-04-25T09:09:58;307.40;2304.00
26272;DHT22;13997;48.902;12.472;2023-04-25T09:12:29;307.50;2304.00
26272;DHT22;13997;48.902;12.472;2023-04-25T09:17:27;308.00;2304.00
26272;DHT22;13997;48.902;12.472;2023-04-25T09:19:54;332.80;2329.60
26272;DHT22;13997;48.902;12.472;2023-04-25T09:22:19;333.10;2329.60
26272;DHT22;13997;48.902;12.472;2023-04-25T09:24:48;333.20;2329.60
26272;DHT22;13997;48.902;12.472;2023-04-25T09:27:20;332.90;2329.60
26272;DHT22;13997;48.902;12.472;2023-04-25T09:29:48;333.10;2329.60
26272;DHT22;13997;48.902;12.472;2023-04-25T09:32:23;333.30;2329.60
26272;DHT22;13997;48.902;12.472;2023-04-25T09:34:52;333.30;2329.60
26272;DHT22;13997;48.902;12.472;2023-04-25T09:37:26;333.40;2329.60
26272;DHT22;13997;48.902;12.472;2023-04-25T09:39:57;333.30;2329.60
26272;DHT22;13997;48.902;12.472;2023-04-25T09:42:25;333.40;2329.60
26272;DHT22;13997;48.902;12.472;2023-04-25T09:44:53;333.60;2329.60
26272;DHT22;13997;48.902;12.472;2023-04-25T09:47:19;358.50;2329.60
26272;DHT22;13997;48.902;12.472;2023-04-25T09:49:47;358.70;2329.60
26272;DHT22;13997;48.902;12.472;2023-04-25T09:52:19;358.70;2329.60
26272;DHT22;13997;48.902;12.472;2023-04-25T09:54:46;358.50;2329.60
26272;DHT22;13997;48.902;12.472;2023-04-25T09:57:17;333.60;2329.60
26272;DHT22;13997;48.902;12.472;2023-04-25T09:59:45;333.40;2329.60
26272;DHT22;13997;48.902;12.472;2023-04-25T10:02:12;333.00;2329.60
26272;DHT22;13997;48.902;12.472;2023-04-25T10:04:38;308.00;2304.00
26272;DHT22;13997;48.902;12.472;2023-04-25T10:07:08;307.50;2304.00
26272;DHT22;13997;48.902;12.472;2023-04-25T10:09:37;282.50;2278.40
26272;DHT22;13997;48.902;12.472;2023-04-25T10:12:03;282.40;2278.40
26272;DHT22;13997;48.902;12.472;2023-04-25T10:14:32;282.30;2278.40
26272;DHT22;13997;48.902;12.472;2023-04-25T10:16:58;282.20;2278.40
26272;DHT22;13997;48.902;12.472;2023-04-25T10:19:25;282.10;2278.40
26272;DHT22;13997;48.902;12.472;2023-04-25T10:24:24;281.90;2278.40
26272;DHT22;13997;48.902;12.472;2023-04-25T10:26:51;281.80;2278.40
26272;DHT22;13997;48.902;12.472;2023-04-25T10:29:24;282.00;2278.40
26272;DHT22;13997;48.902;12.472;2023-04-25T10:31:51;282.20;2278.40
26272;DHT22;13997;48.902;12.472;2023-04-25T10:34:17;282.50;2278.40
26272;DHT22;13997;48.902;12.472;2023-04-25T10:36:43;307.40;2304.00
26272;DHT22;13997;48.902;12.472;2023-04-25T10:39:22;307.70;2304.00
26272;DHT22;13997;48.902;12.472;2023-04-25T10:41:53;307.90;2304.00
26272;DHT22;13997;48.902;12.472;2023-04-25T10:44:18;332.90;2329.60
26272;DHT22;13997;48.902;12.472;2023-04-25T10:46:44;333.20;2329.60
26272;DHT22;13997;48.902;12.472;2023-04-25T10:49:37;333.40;2329.60
26272;DHT22;13997;48.902;12.472;2023-04-25T10:54:42;307.40;2304.00
26272;DHT22;13997;48.902;12.472;2023-04-25T10:57:27;282.10;2278.40
26272;DHT22;13997;48.902;12.472;2023-04-25T10:59:54;281.80;2278.40
26272;DHT22;13997;48.902;12.472;2023-04-25T11:02:19;281.90;2278.40
26272;DHT22;13997;48.902;12.472;2023-04-25T11:04:45;282.40;2278.40
26272;DHT22;13997;48.902;12.472;2023-04-25T11:10:04;307.30;2304.00
26272;DHT22;13997;48.902;12.472;2023-04-25T11:12:31;307.60;2304.00
26272;DHT22;13997;48.902;12.472;2023-04-25T11:15:05;307.80;2304.00
26272;DHT22;13997;48.902;12.472;2023-04-25T11:17:31;307.90;2304.00
26272;DHT22;13997;48.902;12.472;2023-04-25T11:19:57;308.00;2304.00
26272;DHT22;13997;48.902;12.472;2023-04-25T11:22:23;308.00;2304.00
26272;DHT22;13997;48.902;12.472;2023-04-25T11:24:49;308.00;2304.00
26272;DHT22;13997;48.902;12.472;2023-04-25T11:27:15;307.90;2304.00
26272;DHT22;13997;48.902;12.472;2023-04-25T11:29:41;307.90;2304.00
26272;DHT22;13997;48.902;12.472;2023-04-25T11:32:07;307.90;2304.00
26272;DHT22;13997;48.902;12.472;2023-04-25T11:34:33;307.90;2304.00
26272;DHT22;13997;48.902;12.472;2023-04-25T11:37:00;307.80;2304.00
26272;DHT22;13997;48.902;12.472;2023-04-25T11:39:27;307.80;2304.00
26272;DHT22;13997;48.902;12.472;2023-04-25T11:41:54;307.90;2304.00
26272;DHT22;13997;48.902;12.472;2023-04-25T11:44:20;308.10;2304.00
26272;DHT22;13997;48.902;12.472;2023-04-25T11:46:47;332.90;2329.60
26272;DHT22;13997;48.902;12.472;2023-04-25T11:49:13;333.00;2329.60
26272;DHT22;13997;48.902;12.472;2023-04-25T11:51:40;332.80;2329.60
26272;DHT22;13997;48.902;12.472;2023-04-25T11:54:06;308.10;2304.00
26272;DHT22;13997;48.902;12.472;2023-04-25T11:56:31;332.90;2329.60
26272;DHT22;13997;48.902;12.472;2023-04-25T11:58:59;333.10;2329.60
26272;DHT22;13997;48.902;12.472;2023-04-25T12:01:30;333.20;2329.60
26272;DHT22;13997;48.902;12.472;2023-04-25T12:03:57;333.10;2329.60
26272;DHT22;13997;48.902;12.472;2023-04-25T12:06:28;333.00;2329.60
26272;DHT22;13997;48.902;12.472;2023-04-25T12:09:04;332.80;2329.60
26272;DHT22;13997;48.902;12.472;2023-04-25T12:11:40;307.90;2304.00
26272;DHT22;13997;48.902;12.472;2023-04-25T12:14:05;307.90;2304.00
26272;DHT22;13997;48.902;12.472;2023-04-25T12:16:45;332.80;2329.60
26272;DHT22;13997;48.902;12.472;2023-04-25T12:19:14;333.20;2329.60
26272;DHT22;13997;48.902;12.472;2023-04-25T12:21:55;333.40;2329.60
26272;DHT22;13997;48.902;12.472;2023-04-25T12:24:23;358.40;2329.60
26272;DHT22;13997;48.902;12.472;2023-04-25T12:27:07;333.60;2329.60
26272;DHT22;13997;48.902;12.472;2023-04-25T12:29:35;333.50;2329.60
26272;DHT22;13997;48.902;12.472;2023-04-25T12:32:01;333.70;2329.60
26272;DHT22;13997;48.902;12.472;2023-04-25T12:34:27;358.70;2329.60
26272;DHT22;13997;48.902;12.472;2023-04-25T12:36:54;359.10;2329.60
26272;DHT22;13997;48.902;12.472;2023-04-25T12:39:21;359.00;2329.60
26272;DHT22;13997;48.902;12.472;2023-04-25T12:41:51;358.70;2329.60
26272;DHT22;13997;48.902;12.472;2023-04-25T12:44:19;333.70;2329.60
26272;DHT22;13997;48.902;12.472;2023-04-25T12:46:45;333.50;2329.60
26272;DHT22;13997;48.902;12.472;2023-04-25T12:49:10;333.40;2329.60
26272;DHT22;13997;48.902;12.472;2023-04-25T12:51:37;333.50;2329.60
26272;DHT22;13997;48.902;12.472;2023-04-25T12:54:04;358.60;2329.60
26272;DHT22;13997;48.902;12.472;2023-04-25T12:56:31;359.00;2329.60
26272;DHT22;13997;48.902;12.472;2023-04-25T12:58:57;359.30;2329.60
26272;DHT22;13997;48.902;12.472;2023-04-25T13:01:23;359.30;2329.60
26272;DHT22;13997;48.902;12.472;2023-04-25T13:03:49;359.00;2329.60
26272;DHT22;13997;48.902;12.472;2023-04-25T13:06:15;358.70;2329.60
26272;DHT22;13997;48.902;12.472;2023-04-25T13:08:41;358.50;2329.60
26272;DHT22;13997;48.902;12.472;2023-04-25T13:11:08;358.50;2329.60
26272;DHT22;13997;48.902;12.472;2023-04-25T13:13:34;358.50;2329.60
26272;DHT22;13997;48.902;12.472;2023-04-25T13:16:04;358.40;2329.60
26272;DHT22;13997;48.902;12.472;2023-04-25T13:18:30;333.60;2329.60
26272;DHT22;13997;48.902;12.472;2023-04-25T13:20:57;333.60;2329.60
26272;DHT22;13997;48.902;12.472;2023-04-25T13:23:24;333.50;2329.60
26272;DHT22;13997;48.902;12.472;2023-04-25T13:25:49;333.40;2329.60
26272;DHT22;13997;48.902;12.472;2023-04-25T13:28:15;333.30;2329.60
26272;DHT22;13997;48.902;12.472;2023-04-25T13:30:41;333.20;2329.60
26272;DHT22;13997;48.902;12.472;2023-04-25T13:33:07;333.20;2329.60
26272;DHT22;13997;48.902;12.472;2023-04-25T13:35:34;333.10;2329.60
26272;DHT22;13997;48.902;12.472;2023-04-25T13:38:00;333.00;2329.60
26272;DHT22;13997;48.902;12.472;2023-04-25T13:40:26;332.90;2329.60
26272;DHT22;13997;48.902;12.472;2023-04-25T13:42:52;332.90;2329.60
26272;DHT22;13997;48.902;12.472;2023-04-25T13:45:18;332.80;2329.60
26272;DHT22;13997;48.902;12.472;2023-04-25T13:47:44;332.90;2329.60
26272;DHT22;13997;48.902;12.472;2023-04-25T13:50:09;332.90;2329.60
26272;DHT22;13997;48.902;12.472;2023-04-25T13:52:35;332.90;2329.60
26272;DHT22;13997;48.902;12.472;2023-04-25T13:55:01;333.00;2329.60
26272;DHT22;13997;48.902;12.472;2023-04-25T13:57:31;333.00;2329.60
26272;DHT22;13997;48.902;12.472;2023-04-25T13:59:57;333.10;2329.60
26272;DHT22;13997;48.902;12.472;2023-04-25T14:02:23;333.10;2329.60
26272;DHT22;13997;48.902;12.472;2023-04-25T14:04:48;333.10;2329.60
26272;DHT22;13997;48.902;12.472;2023-04-25T14:07:14;333.00;2329.60
26272;DHT22;13997;48.902;12.472;2023-04-25T14:09:43;333.00;2329.60
26272;DHT22;13997;48.902;12.472;2023-04-25T14:12:09;333.00;2329.60
26272;DHT22;13997;48.902;12.472;2023-04-25T14:14:34;333.00;2329.60
26272;DHT22;13997;48.902;12.472;2023-04-25T14:17:00;333.00;2329.60
26272;DHT22;13997;48.902;12.472;2023-04-25T14:19:26;332.90;2329.60
26272;DHT22;13997;48.902;12.472;2023-04-25T14:21:51;332.80;2329.60
26272;DHT22;13997;48.902;12.472;2023-04-25T14:24:17;308.10;2304.00
26272;DHT22;13997;48.902;12.472;2023-04-25T14:26:43;308.10;2304.00
26272;DHT22;13997;48.902;12.472;2023-04-25T14:29:09;308.10;2304.00
26272;DHT22;13997;48.902;12.472;2023-04-25T14:31:37;332.80;2329.60
26272;DHT22;13997;48.902;12.472;2023-04-25T14:34:03;332.90;2329.60
26272;DHT22;13997;48.902;12.472;2023-04-25T14:36:28;333.00;2329.60
26272;DHT22;13997;48.902;12.472;2023-04-25T14:38:54;333.10;2329.60
26272;DHT22;13997;48.902;12.472;2023-04-25T14:41:20;333.00;2329.60
26272;DHT22;13997;48.902;12.472;2023-04-25T14:43:46;333.00;2329.60